Time,TemperatureF,DewpointF,PressureIn,WindDirection,WindDirectionDegrees,WindSpeedMPH,WindSpeedGustMPH,Humidity,HourlyPrecipIn,Conditions,Clouds,dailyrainin,SoftwareType,DateUTC
2013-04-01 00:03:00,49.0,37.0,-100.00,South,173,2.0,10.0,67,0.00,,,-99.99,,2013-04-01 04:03:00,
2013-04-01 00:14:00,49.0,39.0,-100.00,WSW,238,6.0,10.0,71,9.06,,,-99.99,,2013-04-01 04:14:00,
2013-04-01 00:24:00,47.0,39.0,-100.00,WNW,282,4.0,10.0,75,0.00,,,-99.99,,2013-04-01 04:24:00,
2013-04-01 00:33:00,48.0,39.0,-100.00,West,268,5.0,5.0,75,0.00,,,-99.99,,2013-04-01 04:33:00,
2013-04-01 00:43:00,48.0,39.0,-100.00,West,272,4.0,5.0,75,0.00,,,-99.99,,2013-04-01 04:43:00,
2013-04-01 00:53:00,49.0,41.0,-100.00,SW,217,2.0,5.0,76,23.23,,,-99.99,,2013-04-01 04:53:00,
2013-04-01 01:03:00,47.0,39.0,-100.00,West,265,2.0,5.0,77,18.70,,,-99.99,,2013-04-01 05:03:00,
2013-04-01 01:13:00,46.0,39.0,-100.00,NW,319,3.0,6.0,80,0.00,,,-99.99,,2013-04-01 05:13:00,
2013-04-01 01:22:00,47.0,41.0,-100.00,West,262,2.0,6.0,81,0.00,,,-99.99,,2013-04-01 05:22:00,
2013-04-01 01:32:00,48.0,41.0,-100.00,WSW,244,2.0,6.0,82,0.00,,,-99.99,,2013-04-01 05:32:00,
2013-04-01 01:43:00,45.0,39.0,-100.00,SW,234,1.0,6.0,84,0.00,,,-99.99,,2013-04-01 05:43:00,
2013-04-01 01:52:00,45.0,41.0,-100.00,South,182,0.0,6.0,85,6.22,,,-99.99,,2013-04-01 05:52:00,
2013-04-01 02:02:00,44.0,39.0,-100.00,South,183,0.0,6.0,86,0.00,,,-99.99,,2013-04-01 06:02:00,
2013-04-01 02:13:00,46.0,41.0,-100.00,West,276,2.0,6.0,86,0.00,,,-99.99,,2013-04-01 06:13:00,
2013-04-01 02:23:00,45.0,39.0,-100.00,West,269,3.0,6.0,84,6.22,,,-99.99,,2013-04-01 06:23:00,
2013-04-01 02:33:00,47.0,41.0,-100.00,NW,307,6.0,8.0,82,10.79,,,-99.99,,2013-04-01 06:33:00,
2013-04-01 02:43:00,43.0,37.0,-100.00,West,275,5.0,8.0,86,1.14,,,-99.99,,2013-04-01 06:43:00,
2013-04-01 02:52:00,43.0,37.0,-100.00,WNW,293,4.0,8.0,85,0.00,,,-99.99,,2013-04-01 06:52:00,
2013-04-01 03:03:00,45.0,41.0,-100.00,NW,304,2.0,8.0,85,0.00,,,-99.99,,2013-04-01 07:03:00,
2013-04-01 03:13:00,44.0,39.0,-100.00,WNW,302,2.0,8.0,84,0.00,,,-99.99,,2013-04-01 07:13:00,
2013-04-01 03:22:00,43.0,37.0,-100.00,NW,323,2.0,8.0,84,0.00,,,-99.99,,2013-04-01 07:22:00,
2013-04-01 03:32:00,41.0,36.0,-100.00,West,273,1.0,8.0,82,0.00,,,-99.99,,2013-04-01 07:32:00,
2013-04-01 03:42:00,41.0,36.0,-100.00,West,276,4.0,8.0,84,0.00,,,-99.99,,2013-04-01 07:42:00,
2013-04-01 03:52:00,41.0,36.0,-100.00,West,280,1.0,8.0,85,0.00,,,-99.99,,2013-04-01 07:52:00,
2013-04-01 04:03:00,40.0,36.0,-100.00,West,276,2.0,8.0,84,1.14,,,-99.99,,2013-04-01 08:03:00,
2013-04-01 04:12:00,40.0,36.0,-100.00,West,271,1.0,8.0,85,2.83,,,-99.99,,2013-04-01 08:12:00,
2013-04-01 04:22:00,40.0,36.0,-100.00,West,275,1.0,8.0,85,0.00,,,-99.99,,2013-04-01 08:22:00,
2013-04-01 04:32:00,40.0,36.0,-100.00,WNW,285,1.0,8.0,85,0.00,,,-99.99,,2013-04-01 08:32:00,
2013-04-01 04:43:00,41.0,36.0,-100.00,WNW,292,3.0,8.0,84,0.00,,,-99.99,,2013-04-01 08:43:00,
2013-04-01 04:52:00,41.0,36.0,-100.00,West,272,6.0,8.0,81,0.00,,,-99.99,,2013-04-01 08:52:00,
2013-04-01 05:02:00,41.0,34.0,-100.00,West,275,8.0,12.0,78,0.00,,,-99.99,,2013-04-01 09:02:00,
2013-04-01 05:12:00,40.0,32.0,-100.00,West,259,9.0,15.0,75,0.00,,,-99.99,,2013-04-01 09:12:00,
2013-04-01 05:23:00,39.0,32.0,-100.00,West,272,8.0,15.0,73,0.00,,,-99.99,,2013-04-01 09:23:00,
2013-04-01 05:33:00,38.0,30.0,-100.00,West,275,10.0,15.0,72,0.00,,,-99.99,,2013-04-01 09:33:00,
2013-04-01 05:43:00,38.0,32.0,-100.00,NW,319,8.0,15.0,76,0.00,,,-99.99,,2013-04-01 09:43:00,
2013-04-01 05:53:00,38.0,32.0,-100.00,NNW,344,6.0,15.0,78,0.00,,,-99.99,,2013-04-01 09:53:00,
2013-04-01 06:03:00,36.0,32.0,-100.00,North,351,4.0,15.0,80,0.00,,,-99.99,,2013-04-01 10:03:00,
2013-04-01 06:13:00,35.0,30.0,-100.00,NW,310,3.0,15.0,81,0.00,,,-99.99,,2013-04-01 10:13:00,
2013-04-01 06:23:00,35.0,32.0,-100.00,WNW,299,3.0,15.0,82,0.00,,,-99.99,,2013-04-01 10:23:00,
2013-04-01 06:33:00,36.0,32.0,-100.00,WNW,299,4.0,15.0,84,0.00,,,-99.99,,2013-04-01 10:33:00,
2013-04-01 06:42:00,36.0,32.0,-100.00,North,2,3.0,15.0,84,0.00,,,-99.99,,2013-04-01 10:42:00,
2013-04-01 06:53:00,35.0,32.0,-100.00,NW,326,2.0,15.0,84,0.00,,,-99.99,,2013-04-01 10:53:00,
2013-04-01 07:03:00,35.0,30.0,-100.00,ENE,64,2.0,15.0,82,0.00,,,-99.99,,2013-04-01 11:03:00,
2013-04-01 07:13:00,34.0,30.0,-100.00,North,7,2.0,15.0,82,0.00,,,-99.99,,2013-04-01 11:13:00,
2013-04-01 07:23:00,34.0,30.0,-100.00,North,358,2.0,15.0,82,0.00,,,-99.99,,2013-04-01 11:23:00,
2013-04-01 07:33:00,34.0,30.0,-100.00,NE,45,1.0,15.0,82,0.00,,,-99.99,,2013-04-01 11:33:00,
2013-04-01 07:43:00,34.0,30.0,-100.00,North,357,2.0,15.0,81,0.00,,,-99.99,,2013-04-01 11:43:00,
2013-04-01 07:52:00,34.0,28.0,-100.00,NNW,336,2.0,15.0,75,0.00,,,-99.99,,2013-04-01 11:52:00,
2013-04-01 08:03:00,34.0,27.0,-100.00,NE,49,2.0,15.0,72,0.00,,,-99.99,,2013-04-01 12:03:00,
2013-04-01 08:12:00,34.0,27.0,-100.00,WNW,288,2.0,15.0,72,0.00,,,-99.99,,2013-04-01 12:12:00,
2013-04-01 08:23:00,34.0,27.0,-100.00,West,276,2.0,15.0,71,0.00,,,-99.99,,2013-04-01 12:23:00,
2013-04-01 08:32:00,34.0,27.0,-100.00,NW,316,2.0,15.0,71,0.00,,,-99.99,,2013-04-01 12:32:00,
2013-04-01 08:42:00,32.0,25.0,-100.00,NNE,12,2.0,15.0,69,0.00,,,-99.99,,2013-04-01 12:42:00,
2013-04-01 08:52:00,32.0,25.0,-100.00,NW,326,1.0,15.0,69,0.00,,,-99.99,,2013-04-01 12:52:00,
2013-04-01 09:03:00,32.0,21.0,-100.00,NW,309,7.0,15.0,60,0.00,,,-99.99,,2013-04-01 13:03:00,
2013-04-01 09:12:00,32.0,21.0,-100.00,WNW,302,5.0,15.0,60,0.00,,,-99.99,,2013-04-01 13:12:00,
2013-04-01 09:22:00,32.0,19.0,-100.00,WNW,297,5.0,15.0,56,0.00,,,-99.99,,2013-04-01 13:22:00,
2013-04-01 09:32:00,32.0,19.0,-100.00,ESE,110,2.0,15.0,55,0.00,,,-99.99,,2013-04-01 13:32:00,
2013-04-01 09:42:00,32.0,19.0,-100.00,WNW,285,2.0,15.0,56,0.00,,,-99.99,,2013-04-01 13:42:00,
2013-04-01 09:52:00,32.0,19.0,-100.00,NW,309,1.0,15.0,58,0.00,,,-99.99,,2013-04-01 13:52:00,
2013-04-01 10:04:00,32.0,18.0,-100.00,WNW,300,4.0,15.0,53,0.00,,,-99.99,,2013-04-01 14:04:00,
2013-04-01 10:12:00,32.0,18.0,-100.00,NNW,343,4.0,15.0,53,0.00,,,-99.99,,2013-04-01 14:12:00,
2013-04-01 10:23:00,32.0,18.0,-100.00,WSW,244,4.0,15.0,53,0.00,,,-99.99,,2013-04-01 14:23:00,
2013-04-01 10:33:00,33.0,19.0,-100.00,WSW,256,6.0,15.0,56,0.00,,,-99.99,,2013-04-01 14:33:00,
2013-04-01 10:42:00,33.0,19.0,-100.00,NW,319,7.0,15.0,54,0.00,,,-99.99,,2013-04-01 14:42:00,
2013-04-01 10:52:00,34.0,18.0,-100.00,West,269,5.0,15.0,49,0.00,,,-99.99,,2013-04-01 14:52:00,
2013-04-01 11:03:00,35.0,16.0,-100.00,NNE,12,5.0,15.0,45,0.00,,,-99.99,,2013-04-01 15:03:00,
2013-04-01 11:13:00,35.0,16.0,-100.00,WNW,296,9.0,15.0,44,0.00,,,-99.99,,2013-04-01 15:13:00,
2013-04-01 11:23:00,35.0,14.0,-100.00,West,271,7.0,15.0,41,0.00,,,-99.99,,2013-04-01 15:23:00,
2013-04-01 11:34:00,35.0,14.0,-100.00,North,354,7.0,15.0,40,0.00,,,-99.99,,2013-04-01 15:34:00,
2013-04-01 11:43:00,34.0,14.0,-100.00,WNW,297,9.0,15.0,41,0.00,,,-99.99,,2013-04-01 15:43:00,
2013-04-01 11:53:00,36.0,18.0,-100.00,NW,307,7.0,15.0,45,0.00,,,-99.99,,2013-04-01 15:53:00,
2013-04-01 12:03:00,34.0,18.0,-100.00,NW,319,11.0,15.0,51,0.00,,,-99.99,,2013-04-01 16:03:00,
2013-04-01 12:13:00,35.0,14.0,-100.00,WNW,300,6.0,15.0,38,0.00,,,-99.99,,2013-04-01 16:13:00,
2013-04-01 12:23:00,35.0,18.0,-100.00,SW,217,4.0,15.0,46,0.00,,,-99.99,,2013-04-01 16:23:00,
2013-04-01 12:33:00,34.0,18.0,-100.00,WNW,296,6.0,15.0,49,0.00,,,-99.99,,2013-04-01 16:33:00,
2013-04-01 12:43:00,36.0,18.0,-100.00,NNW,334,6.0,15.0,44,0.00,,,-99.99,,2013-04-01 16:43:00,
2013-04-01 12:52:00,36.0,18.0,-100.00,WNW,293,9.0,15.0,47,0.00,,,-99.99,,2013-04-01 16:52:00,
2013-04-01 13:03:00,35.0,18.0,-100.00,WNW,295,10.0,15.0,47,0.00,,,-99.99,,2013-04-01 17:03:00,
2013-04-01 13:13:00,37.0,18.0,-100.00,NW,317,9.0,15.0,44,0.00,,,-99.99,,2013-04-01 17:13:00,
2013-04-01 13:23:00,36.0,16.0,-100.00,NW,313,7.0,15.0,42,0.00,,,-99.99,,2013-04-01 17:23:00,
2013-04-01 13:32:00,36.0,16.0,-100.00,NNW,340,6.0,15.0,41,0.00,,,-99.99,,2013-04-01 17:32:00,
2013-04-01 13:42:00,35.0,16.0,-100.00,WNW,302,7.0,15.0,42,0.00,,,-99.99,,2013-04-01 17:42:00,
2013-04-01 13:52:00,36.0,16.0,-100.00,WNW,290,6.0,15.0,41,0.00,,,-99.99,,2013-04-01 17:52:00,
2013-04-01 14:03:00,36.0,16.0,-100.00,WNW,283,10.0,15.0,42,0.00,,,-99.99,,2013-04-01 18:03:00,
2013-04-01 14:12:00,37.0,18.0,-100.00,NW,319,10.0,15.0,44,0.00,,,-99.99,,2013-04-01 18:12:00,
2013-04-01 14:22:00,34.0,16.0,-100.00,West,276,9.0,15.0,45,0.00,,,-99.99,,2013-04-01 18:22:00,
2013-04-01 14:33:00,34.0,16.0,-100.00,West,276,9.0,15.0,45,0.00,,,-99.99,,2013-04-01 18:33:00,
2013-04-01 14:43:00,36.0,18.0,-100.00,WNW,285,7.0,15.0,45,0.00,,,-99.99,,2013-04-01 18:43:00,
2013-04-01 14:52:00,36.0,18.0,-100.00,NW,309,7.0,15.0,45,0.00,,,-99.99,,2013-04-01 18:52:00,
2013-04-01 15:03:00,36.0,16.0,-100.00,NW,316,7.0,15.0,42,0.00,,,-99.99,,2013-04-01 19:03:00,
2013-04-01 15:13:00,37.0,16.0,-100.00,NW,326,6.0,15.0,42,0.00,,,-99.99,,2013-04-01 19:13:00,
2013-04-01 15:23:00,36.0,18.0,-100.00,WNW,299,9.0,15.0,46,0.00,,,-99.99,,2013-04-01 19:23:00,
2013-04-01 15:32:00,36.0,16.0,-100.00,WNW,285,9.0,15.0,42,0.00,,,-99.99,,2013-04-01 19:32:00,
2013-04-01 15:42:00,35.0,18.0,-100.00,West,273,13.0,15.0,47,0.00,,,-99.99,,2013-04-01 19:42:00,
2013-04-01 15:53:00,37.0,16.0,-100.00,NNW,334,7.0,15.0,41,0.00,,,-99.99,,2013-04-01 19:53:00,
2013-04-01 16:02:00,34.0,16.0,-100.00,West,268,6.0,15.0,45,0.00,,,-99.99,,2013-04-01 20:02:00,
2013-04-01 16:13:00,36.0,18.0,-100.00,NW,320,6.0,15.0,45,0.00,,,-99.99,,2013-04-01 20:13:00,
2013-04-01 16:23:00,35.0,16.0,-100.00,WNW,282,6.0,15.0,44,0.00,,,-99.99,,2013-04-01 20:23:00,
2013-04-01 16:33:00,36.0,18.0,-100.00,NW,314,7.0,15.0,44,0.00,,,-99.99,,2013-04-01 20:33:00,
2013-04-01 16:43:00,35.0,14.0,-100.00,West,269,9.0,15.0,42,0.00,,,-99.99,,2013-04-01 20:43:00,
2013-04-01 16:52:00,37.0,16.0,-100.00,West,265,6.0,15.0,40,0.00,,,-99.99,,2013-04-01 20:52:00,
2013-04-01 17:02:00,36.0,14.0,-100.00,NW,310,11.0,15.0,40,0.00,,,-99.99,,2013-04-01 21:02:00,
2013-04-01 17:12:00,36.0,16.0,-100.00,West,262,10.0,15.0,41,0.00,,,-99.99,,2013-04-01 21:12:00,
2013-04-01 17:23:00,37.0,16.0,-100.00,NE,56,6.0,15.0,41,0.00,,,-99.99,,2013-04-01 21:23:00,
2013-04-01 17:33:00,37.0,14.0,-100.00,NNW,327,6.0,15.0,37,0.00,,,-99.99,,2013-04-01 21:33:00,
2013-04-01 17:43:00,38.0,14.0,-100.00,WNW,300,7.0,15.0,37,0.00,,,-99.99,,2013-04-01 21:43:00,
2013-04-01 17:52:00,38.0,14.0,-100.00,West,264,9.0,15.0,36,0.00,,,-99.99,,2013-04-01 21:52:00,
2013-04-01 18:03:00,37.0,14.0,-100.00,WNW,288,13.0,15.0,37,0.00,,,-99.99,,2013-04-01 22:03:00,
2013-04-01 18:13:00,36.0,12.0,-100.00,West,271,12.0,15.0,34,0.00,,,-99.99,,2013-04-01 22:13:00,
2013-04-01 18:23:00,37.0,12.0,-100.00,NW,306,9.0,15.0,34,0.00,,,-99.99,,2013-04-01 22:23:00,
2013-04-01 18:33:00,37.0,12.0,-100.00,WNW,296,8.0,15.0,33,0.00,,,-99.99,,2013-04-01 22:33:00,
2013-04-01 18:43:00,37.0,14.0,-100.00,West,268,8.0,15.0,36,0.00,,,-99.99,,2013-04-01 22:43:00,
2013-04-01 18:52:00,37.0,14.0,-100.00,WNW,288,6.0,15.0,37,0.00,,,-99.99,,2013-04-01 22:52:00,
2013-04-01 19:02:00,37.0,16.0,-100.00,WNW,283,6.0,15.0,40,0.00,,,-99.99,,2013-04-01 23:02:00,
2013-04-01 19:12:00,36.0,14.0,-100.00,West,278,4.0,15.0,40,0.00,,,-99.99,,2013-04-01 23:12:00,
2013-04-01 19:23:00,36.0,16.0,-100.00,West,261,3.0,15.0,42,0.00,,,-99.99,,2013-04-01 23:23:00,
2013-04-01 19:32:00,37.0,19.0,-100.00,NNW,345,6.0,15.0,45,0.00,,,-99.99,,2013-04-01 23:32:00,
2013-04-01 19:43:00,37.0,19.0,-100.00,WNW,288,4.0,15.0,46,0.00,,,-99.99,,2013-04-01 23:43:00,
2013-04-01 19:52:00,36.0,19.0,-100.00,NW,320,2.0,15.0,49,0.00,,,-99.99,,2013-04-01 23:52:00,
2013-04-01 20:03:00,34.0,19.0,-100.00,NW,319,1.0,15.0,51,0.00,,,-99.99,,2013-04-02 00:03:00,
2013-04-01 20:12:00,34.0,19.0,-100.00,West,271,1.0,15.0,54,0.00,,,-99.99,,2013-04-02 00:12:00,
2013-04-01 20:22:00,34.0,19.0,-100.00,WNW,290,1.0,15.0,54,0.00,,,-99.99,,2013-04-02 00:22:00,
2013-04-01 20:33:00,34.0,19.0,-100.00,WNW,300,2.0,15.0,54,0.00,,,-99.99,,2013-04-02 00:33:00,
2013-04-01 20:43:00,33.0,19.0,-100.00,NNW,330,2.0,15.0,55,0.00,,,-99.99,,2013-04-02 00:43:00,
2013-04-01 20:52:00,33.0,19.0,-100.00,NNW,331,2.0,15.0,55,0.00,,,-99.99,,2013-04-02 00:52:00,
2013-04-01 21:02:00,31.0,18.0,-100.00,WNW,297,2.0,15.0,56,0.00,,,-99.99,,2013-04-02 01:02:00,
2013-04-01 21:12:00,33.0,19.0,-100.00,SW,221,1.0,15.0,54,0.00,,,-99.99,,2013-04-02 01:12:00,
2013-04-01 21:22:00,32.0,18.0,-100.00,West,275,0.0,15.0,54,0.00,,,-99.99,,2013-04-02 01:22:00,
2013-04-01 21:32:00,32.0,19.0,-100.00,WSW,258,2.0,15.0,56,0.00,,,-99.99,,2013-04-02 01:32:00,
2013-04-01 21:43:00,33.0,18.0,-100.00,West,268,3.0,15.0,51,0.00,,,-99.99,,2013-04-02 01:43:00,
2013-04-01 21:52:00,32.0,18.0,-100.00,West,273,1.0,15.0,51,0.00,,,-99.99,,2013-04-02 01:52:00,
2013-04-01 22:03:00,33.0,18.0,-100.00,NNE,28,1.0,15.0,53,0.00,,,-99.99,,2013-04-02 02:03:00,
2013-04-01 22:12:00,33.0,18.0,-100.00,NNE,21,2.0,15.0,49,0.00,,,-99.99,,2013-04-02 02:12:00,
2013-04-01 22:22:00,33.0,18.0,-100.00,WSW,254,1.0,15.0,51,0.00,,,-99.99,,2013-04-02 02:22:00,
2013-04-01 22:32:00,33.0,16.0,-100.00,NW,316,2.0,15.0,49,0.00,,,-99.99,,2013-04-02 02:32:00,
2013-04-01 22:42:00,32.0,16.0,-100.00,NW,314,1.0,15.0,50,0.00,,,-99.99,,2013-04-02 02:42:00,
2013-04-01 22:52:00,32.0,18.0,-100.00,SW,225,1.0,15.0,50,0.00,,,-99.99,,2013-04-02 02:52:00,
2013-04-01 23:02:00,33.0,18.0,-100.00,NW,316,1.0,15.0,50,0.00,,,-99.99,,2013-04-02 03:02:00,
2013-04-01 23:22:00,32.0,21.0,-100.00,North,355,2.0,15.0,64,0.00,,,-99.99,,2013-04-02 03:22:00,
2013-04-01 23:33:00,32.0,21.0,-100.00,NW,323,1.0,15.0,63,0.00,,,-99.99,,2013-04-02 03:33:00,
2013-04-01 23:43:00,32.0,21.0,-100.00,NW,321,1.0,15.0,62,0.00,,,-99.99,,2013-04-02 03:43:00,
2013-04-01 23:53:00,31.0,21.0,-100.00,ESE,115,1.0,15.0,62,0.00,,,-99.99,,2013-04-02 03:53:00,